Main page
METAR-TAF:

METAR-TAF

Airports :

Shimla, India

Shimla Airport

latitude: 31-04-54N, longitude: 77-04-05E, elevation: 1546 m

Current weather observation

The report was made 14 hours and 35 minutes ago, at 06:00 UTC
Wind 10 kt from the Northwest
Temperature 16°C
Humidity 72%
Pressure 1020 hPa
Visibility: 6000 m
Scattered clouds at a height of 4000 ft
Broken clouds at a height of 6000 ft

METAR: VISM 300600Z 32010KT 6000 SCT040 BKN060 16/11 Q1020

Time: 02:05 (20:35 UTC)


TAF: missing

Weather observations and forecasts of more than 4000 airports (METAR and TAF reports).

The available stations are represented by yellow and red dots on the map.

Hover mouse over dot to see the name of the station.

Then click to see weather observations and forecasts.

To change the map : click on the green buttons with a black cross to zoom in, on the green button with a dash to zoom out, or on the green arrows for adjacent maps.


METAR-TAF: